Time;durP1;ratioP1;P1;durP2;ratioP2;P2;SDS_P1;SDS_P2;PMS_P1;PMS_P2;Temp;Humidity;BMP_temperature;BMP_pressure;BME280_temperature;BME280_humidity;BME280_pressure;Samples;Min_cycle;Max_cycle;Signal;HPM_P1;HPM_P2
2022/07/04 00:01:26;;;;;;;1.95;1.60;;;;;18.60;94447.00;;;;7397854;19;20147;-76
2022/07/04 00:03:54;;;;;;;1.60;1.50;;;;;18.30;94443.00;;;;7391828;19;21024;-76
2022/07/04 00:06:21;;;;;;;4.03;1.85;;;;;18.40;94436.00;;;;7395711;19;20156;-76
2022/07/04 00:08:56;;;;;;;4.07;2.05;;;;;18.30;94428.00;;;;7391938;19;20129;-77
2022/07/04 00:11:30;;;;;;;8.45;1.90;;;;;18.20;94424.00;;;;7393210;19;20180;-76
2022/07/04 00:14:11;;;;;;;4.28;1.65;;;;;18.20;94424.00;;;;7391229;19;20599;-76
2022/07/04 00:16:38;;;;;;;5.47;1.77;;;;;18.10;94438.00;;;;7398256;19;20592;-76
2022/07/04 00:19:12;;;;;;;3.08;1.77;;;;;18.00;94428.00;;;;7392012;19;20140;-76
2022/07/04 00:21:40;;;;;;;1.90;1.60;;;;;17.90;94434.00;;;;7395616;19;20149;-76
2022/07/04 00:24:07;;;;;;;2.28;1.58;;;;;17.90;94436.00;;;;7393004;19;20132;-76
2022/07/04 00:26:41;;;;;;;2.47;1.95;;;;;17.90;94444.00;;;;7395006;19;20170;-76
2022/07/04 00:29:09;;;;;;;7.15;1.80;;;;;17.80;94438.00;;;;7377454;19;20148;-77
2022/07/04 00:31:36;;;;;;;3.13;2.08;;;;;17.80;94436.00;;;;7395667;19;20145;-76
2022/07/04 00:34:10;;;;;;;2.90;1.70;;;;;17.80;94439.00;;;;7390416;19;20119;-76
2022/07/04 00:36:38;;;;;;;3.25;1.65;;;;;17.90;94444.00;;;;7394381;19;20904;-76
2022/07/04 00:39:06;;;;;;;3.50;1.88;;;;;17.70;94447.00;;;;7393055;19;20145;-76
2022/07/04 00:41:43;;;;;;;3.55;1.70;;;;;17.90;94448.00;;;;7393662;19;22225;-76
2022/07/04 00:44:13;;;;;;;4.38;2.22;;;;;17.80;94445.00;;;;7392858;19;20136;-76
2022/07/04 00:46:42;;;;;;;2.90;1.80;;;;;17.80;94445.00;;;;7392659;19;20196;-76
2022/07/04 00:49:18;;;;;;;4.32;1.90;;;;;17.70;94445.00;;;;7393364;19;20129;-76
2022/07/04 00:51:47;;;;;;;2.88;1.95;;;;;17.80;94439.00;;;;7392987;19;20136;-75
2022/07/04 00:54:18;;;;;;;6.80;2.13;;;;;17.50;94445.00;;;;7392291;19;20188;-76
2022/07/04 00:56:52;;;;;;;5.78;2.40;;;;;17.60;94454.00;;;;7393452;19;20143;-75
2022/07/04 00:59:20;;;;;;;2.58;2.03;;;;;17.60;94454.00;;;;7390294;19;20128;-75
2022/07/04 01:01:48;;;;;;;5.07;1.73;;;;;17.40;94456.00;;;;7389249;19;20149;-77
2022/07/04 01:04:24;;;;;;;3.45;2.17;;;;;17.20;94453.00;;;;7383328;19;20226;-78
2022/07/04 01:06:53;;;;;;;4.07;2.20;;;;;17.20;94436.00;;;;7392983;19;20138;-79
2022/07/04 01:09:21;;;;;;;3.78;1.80;;;;;17.10;94429.00;;;;7387664;19;20204;-76
2022/07/04 01:12:01;;;;;;;4.25;2.10;;;;;17.20;94441.00;;;;7393972;19;20200;-76
2022/07/04 01:14:29;;;;;;;5.10;1.80;;;;;17.20;94433.00;;;;7393407;19;20639;-78
2022/07/04 01:17:03;;;;;;;5.97;1.98;;;;;17.10;94440.00;;;;7392413;19;20479;-79
2022/07/04 01:19:31;;;;;;;8.32;2.30;;;;;17.20;94438.00;;;;7393453;19;20129;-77
2022/07/04 01:22:04;;;;;;;2.35;1.80;;;;;17.10;94435.00;;;;7403317;19;20607;-77
2022/07/04 01:24:38;;;;;;;14.48;2.17;;;;;17.10;94422.00;;;;7406017;19;20598;-78
2022/07/04 01:27:06;;;;;;;4.70;1.90;;;;;17.00;94428.00;;;;7404984;19;20145;-77
2022/07/04 01:29:33;;;;;;;2.97;2.05;;;;;17.10;94439.00;;;;7404194;19;20124;-79
2022/07/04 01:32:09;;;;;;;10.95;2.33;;;;;17.00;94439.00;;;;7402350;19;20167;-80
2022/07/04 01:34:38;;;;;;;2.88;2.03;;;;;17.10;94439.00;;;;7405765;19;20127;-77
2022/07/04 01:37:12;;;;;;;6.18;2.22;;;;;16.90;94435.00;;;;7406447;19;20128;-79
2022/07/04 01:39:48;;;;;;;4.65;1.98;;;;;17.00;94437.00;;;;7404182;19;20459;-79
2022/07/04 01:42:16;;;;;;;3.83;2.00;;;;;17.00;94443.00;;;;7404536;19;20164;-79
2022/07/04 01:44:45;;;;;;;6.72;1.90;;;;;16.90;94433.00;;;;7405138;19;20149;-78
2022/07/04 01:47:20;;;;;;;3.00;2.13;;;;;17.00;94437.00;;;;7404871;19;20151;-78
2022/07/04 01:49:47;;;;;;;2.85;1.95;;;;;17.00;94443.00;;;;7403385;19;20125;-77
2022/07/04 01:52:15;;;;;;;2.50;2.00;;;;;17.00;94441.00;;;;7407533;19;20655;-78
2022/07/04 01:54:50;;;;;;;2.88;2.17;;;;;16.70;94443.00;;;;7405457;19;20629;-79
2022/07/04 01:57:17;;;;;;;4.15;2.00;;;;;16.90;94444.00;;;;7402241;19;20164;-79
2022/07/04 02:02:39;;;;;;;8.15;1.92;;;;;16.80;94435.00;;;;7404452;19;20178;-77
2022/07/04 02:05:07;;;;;;;4.65;1.88;;;;;16.60;94445.00;;;;7403624;19;20140;-77
2022/07/04 02:07:35;;;;;;;5.88;2.00;;;;;16.60;94435.00;;;;7402716;19;20485;-77
2022/07/04 02:10:16;;;;;;;5.43;2.10;;;;;16.60;94438.00;;;;7402562;19;20171;-78
2022/07/04 02:13:01;;;;;;;4.50;2.20;;;;;16.60;94445.00;;;;7405491;19;20160;-78
2022/07/04 02:15:40;;;;;;;4.55;1.95;;;;;16.60;94446.00;;;;7407693;19;20133;-77
2022/07/04 02:18:10;;;;;;;4.75;1.92;;;;;16.30;94446.00;;;;7403144;19;20152;-80
2022/07/04 02:20:44;;;;;;;3.33;2.10;;;;;16.40;94451.00;;;;7403373;19;20200;-78
2022/07/04 02:23:11;;;;;;;5.80;2.15;;;;;16.30;94450.00;;;;7406537;19;20139;-77
2022/07/04 02:25:39;;;;;;;3.67;2.10;;;;;16.40;94450.00;;;;7400663;19;20125;-78
2022/07/04 02:28:13;;;;;;;3.17;2.10;;;;;16.30;94453.00;;;;7403649;19;20150;-76
2022/07/04 02:30:40;;;;;;;4.78;2.25;;;;;16.50;94453.00;;;;7404979;19;20128;-78
2022/07/04 02:33:08;;;;;;;4.07;2.00;;;;;16.30;94450.00;;;;7396687;19;20109;-78
2022/07/04 02:35:42;;;;;;;2.75;2.05;;;;;16.30;94452.00;;;;7395719;19;20129;-77
2022/07/04 02:38:09;;;;;;;5.55;2.20;;;;;16.40;94452.00;;;;7396261;19;20133;-76
2022/07/04 02:40:37;;;;;;;3.35;2.00;;;;;16.20;94456.00;;;;7397180;19;20155;-78
2022/07/04 02:43:11;;;;;;;7.07;2.15;;;;;16.20;94462.00;;;;7396429;19;20129;-77
2022/07/04 02:45:38;;;;;;;2.53;1.70;;;;;16.20;94471.00;;;;7395903;19;20206;-78
2022/07/04 02:48:06;;;;;;;8.80;2.25;;;;;16.00;94468.00;;;;7396375;19;20181;-77
2022/07/04 02:50:40;;;;;;;5.05;2.33;;;;;16.20;94473.00;;;;7395529;19;20614;-79
2022/07/04 02:53:08;;;;;;;2.58;2.10;;;;;16.10;94471.00;;;;7399323;19;20132;-79
2022/07/04 02:55:35;;;;;;;3.55;2.13;;;;;16.10;94468.00;;;;7396693;19;20154;-78
2022/07/04 02:58:09;;;;;;;6.55;2.28;;;;;15.90;94467.00;;;;7396774;19;20137;-78
2022/07/04 03:00:36;;;;;;;3.05;2.13;;;;;15.80;94471.00;;;;7398028;19;20579;-78
2022/07/04 03:03:05;;;;;;;4.78;2.25;;;;;15.80;94467.00;;;;7395469;19;20152;-76
2022/07/04 03:05:55;;;;;;;3.65;1.98;;;;;15.70;94470.00;;;;7392702;19;20189;-78
2022/07/04 03:08:37;;;;;;;3.28;2.15;;;;;15.60;94471.00;;;;7397609;19;20590;-78
2022/07/04 03:11:18;;;;;;;7.35;2.40;;;;;15.50;94472.00;;;;7392928;19;20183;-77
2022/07/04 03:13:46;;;;;;;3.20;1.95;;;;;15.50;94468.00;;;;7396440;19;20772;-78
2022/07/04 03:16:20;;;;;;;4.07;2.28;;;;;15.50;94466.00;;;;7394502;19;20599;-78
2022/07/04 03:18:47;;;;;;;3.38;1.90;;;;;15.30;94469.00;;;;7396948;19;20129;-76
2022/07/04 03:21:15;;;;;;;2.22;1.70;;;;;15.40;94463.00;;;;7394831;19;20114;-78
2022/07/04 03:23:58;;;;;;;4.65;2.03;;;;;15.30;94472.00;;;;7395120;19;20133;-78
2022/07/04 03:26:30;;;;;;;4.78;1.95;;;;;15.20;94471.00;;;;7393214;19;20504;-78
2022/07/04 03:29:05;;;;;;;3.22;1.85;;;;;15.10;94473.00;;;;7394990;19;20141;-77
2022/07/04 03:31:32;;;;;;;3.50;1.98;;;;;15.10;94468.00;;;;7393886;19;20141;-78
2022/07/04 03:34:00;;;;;;;5.63;1.90;;;;;15.20;94470.00;;;;7398276;19;20154;-77
2022/07/04 03:36:34;;;;;;;3.45;2.08;;;;;15.10;94475.00;;;;7393737;19;20147;-77
2022/07/04 03:39:02;;;;;;;2.85;2.20;;;;;15.10;94470.00;;;;7394807;19;20140;-78
2022/07/04 03:41:30;;;;;;;4.95;2.00;;;;;15.10;94489.00;;;;7394106;19;20125;-78
2022/07/04 03:44:07;;;;;;;4.05;1.95;;;;;15.20;94484.00;;;;7392543;19;20140;-77
2022/07/04 03:46:34;;;;;;;2.72;2.20;;;;;15.00;94484.00;;;;7394414;19;20121;-77
2022/07/04 03:49:02;;;;;;;5.30;2.03;;;;;15.10;94486.00;;;;7395554;19;20183;-77
2022/07/04 03:51:42;;;;;;;2.50;2.03;;;;;15.10;94487.00;;;;7392831;19;20643;-77
2022/07/04 03:54:10;;;;;;;3.05;1.95;;;;;15.10;94490.00;;;;7394460;19;20575;-78
2022/07/04 03:56:44;;;;;;;4.80;2.17;;;;;15.10;94492.00;;;;7395227;19;20125;-78
2022/07/04 03:59:13;;;;;;;4.53;2.10;;;;;15.20;94492.00;;;;7391273;19;20148;-76
2022/07/04 04:01:41;;;;;;;4.18;2.10;;;;;15.20;94502.00;;;;7393553;19;20145;-77
2022/07/04 04:07:01;;;;;;;2.13;1.83;;;;;15.10;94502.00;;;;7392417;19;20668;-78
2022/07/04 04:09:35;;;;;;;4.07;1.75;;;;;15.20;94501.00;;;;7391664;19;20128;-77
2022/07/04 04:12:09;;;;;;;5.15;2.17;;;;;15.20;94497.00;;;;7394557;19;20200;-77
2022/07/04 04:14:43;;;;;;;2.10;1.90;;;;;15.30;94505.00;;;;7397388;19;20129;-78
2022/07/04 04:17:11;;;;;;;2.50;1.90;;;;;15.50;94507.00;;;;7391124;19;20129;-78
2022/07/04 04:19:38;;;;;;;6.00;2.10;;;;;15.50;94519.00;;;;7396183;19;21017;-78
2022/07/04 04:22:12;;;;;;;4.32;2.05;;;;;15.50;94518.00;;;;7392498;19;20614;-78
2022/07/04 04:24:39;;;;;;;5.05;2.20;;;;;15.70;94521.00;;;;7393257;19;20500;-77
2022/07/04 04:27:07;;;;;;;3.13;1.88;;;;;15.50;94525.00;;;;7389787;19;20642;-78
2022/07/04 04:29:41;;;;;;;7.57;2.15;;;;;15.40;94528.00;;;;7393796;19;20150;-78
2022/07/04 04:32:09;;;;;;;3.58;1.80;;;;;15.30;94533.00;;;;7389344;19;20609;-78
2022/07/04 04:34:36;;;;;;;3.92;1.90;;;;;15.30;94536.00;;;;7388345;19;20129;-78
2022/07/04 04:37:11;;;;;;;3.58;2.05;;;;;15.20;94532.00;;;;7393069;19;20626;-77
2022/07/04 04:39:39;;;;;;;4.43;1.80;;;;;15.20;94540.00;;;;7388906;19;20529;-78
2022/07/04 04:42:09;;;;;;;1.90;1.70;;;;;15.20;94555.00;;;;7393646;19;20472;-77
2022/07/04 04:44:43;;;;;;;5.43;2.17;;;;;15.30;94547.00;;;;7391637;19;20170;-78
2022/07/04 04:47:11;;;;;;;3.58;2.13;;;;;15.20;94552.00;;;;7390123;19;20168;-77
2022/07/04 04:49:38;;;;;;;3.78;1.95;;;;;15.20;94553.00;;;;7390866;19;20242;-78
2022/07/04 04:52:13;;;;;;;2.50;1.67;;;;;15.30;94551.00;;;;7390910;19;20159;-78
2022/07/04 04:54:41;;;;;;;1.80;1.45;;;;;15.30;94548.00;;;;7390886;19;20125;-78
2022/07/04 04:57:08;;;;;;;4.50;1.88;;;;;15.30;94555.00;;;;7390342;19;20145;-77
2022/07/04 04:59:42;;;;;;;4.00;1.92;;;;;15.50;94558.00;;;;7389074;19;20113;-78
2022/07/04 05:02:09;;;;;;;2.60;1.90;;;;;15.60;94555.00;;;;7392115;19;20155;-77
2022/07/04 05:04:43;;;;;;;4.07;1.98;;;;;15.60;94554.00;;;;7386004;19;20147;-77
2022/07/04 05:07:17;;;;;;;3.47;1.80;;;;;15.90;94557.00;;;;7394996;19;20167;-77
2022/07/04 05:09:44;;;;;;;2.67;1.50;;;;;16.20;94555.00;;;;7389183;19;20140;-78
2022/07/04 05:12:12;;;;;;;4.10;1.35;;;;;16.20;94552.00;;;;7393306;19;20663;-77
2022/07/04 05:14:47;;;;;;;2.53;1.80;;;;;16.40;94554.00;;;;7389763;19;20161;-78
2022/07/04 05:17:15;;;;;;;5.05;1.90;;;;;16.80;94555.00;;;;7395426;19;20137;-77
2022/07/04 05:19:43;;;;;;;6.47;1.60;;;;;17.20;94550.00;;;;7390079;19;20145;-76
2022/07/04 05:22:17;;;;;;;3.95;2.03;;;;;17.40;94547.00;;;;7394074;19;20155;-77
2022/07/04 05:24:45;;;;;;;2.70;1.85;;;;;17.00;94549.00;;;;7389527;19;20208;-78
2022/07/04 05:27:13;;;;;;;2.63;1.70;;;;;16.80;94543.00;;;;7391058;19;20149;-80
2022/07/04 05:29:47;;;;;;;2.30;1.60;;;;;17.10;94535.00;;;;7389248;19;20117;-77
2022/07/04 05:32:21;;;;;;;3.05;1.52;;;;;17.10;94537.00;;;;7388070;19;20141;-78
2022/07/04 05:34:57;;;;;;;5.30;1.95;;;;;17.20;94536.00;;;;7386450;19;20136;-78
2022/07/04 05:37:25;;;;;;;2.97;1.67;;;;;17.40;94527.00;;;;7388887;19;20137;-80
2022/07/04 05:39:53;;;;;;;5.00;1.75;;;;;17.40;94523.00;;;;7387877;19;20145;-79
2022/07/04 05:42:27;;;;;;;2.47;1.50;;;;;17.80;94517.00;;;;7388392;19;20144;-81
2022/07/04 05:44:55;;;;;;;3.65;1.90;;;;;17.90;94516.00;;;;7390740;19;20148;-81
2022/07/04 05:47:25;;;;;;;4.80;1.70;;;;;17.90;94516.00;;;;7387397;19;20160;-80
2022/07/04 05:50:00;;;;;;;4.07;1.70;;;;;18.10;94520.00;;;;7391725;19;20149;-79
2022/07/04 05:52:27;;;;;;;5.40;2.03;;;;;18.00;94522.00;;;;7388213;19;20611;-79
2022/07/04 05:54:55;;;;;;;4.55;1.88;;;;;17.90;94508.00;;;;7389991;19;20168;-79
2022/07/04 05:57:29;;;;;;;2.72;1.67;;;;;17.90;94513.00;;;;7391821;19;20192;-78
2022/07/04 05:59:56;;;;;;;3.10;1.70;;;;;17.90;94508.00;;;;7386493;19;20141;-80
2022/07/04 06:02:24;;;;;;;3.83;1.80;;;;;18.00;94512.00;;;;7388332;19;20631;-79
2022/07/04 06:04:58;;;;;;;3.67;1.70;;;;;18.10;94508.00;;;;7388442;19;20139;-78
2022/07/04 06:07:26;;;;;;;2.15;1.58;;;;;18.10;94509.00;;;;7392337;19;20133;-78
2022/07/04 06:09:54;;;;;;;2.42;1.50;;;;;18.10;94513.00;;;;7398747;19;20152;-79
2022/07/04 06:12:35;;;;;;;5.38;1.55;;;;;18.10;94514.00;;;;7395343;19;20188;-79
2022/07/04 06:15:02;;;;;;;4.60;1.88;;;;;18.20;94515.00;;;;7394966;19;20124;-79
2022/07/04 06:17:37;;;;;;;4.20;1.70;;;;;18.40;94524.00;;;;7397184;19;20155;-80
2022/07/04 06:20:08;;;;;;;6.60;2.22;;;;;18.70;94516.00;;;;7397057;19;20160;-79
2022/07/04 06:22:41;;;;;;;5.55;1.98;;;;;18.90;94511.00;;;;7397585;19;20720;-79
2022/07/04 06:25:18;;;;;;;3.42;1.75;;;;;19.30;94515.00;;;;7395851;19;20551;-80
2022/07/04 06:27:48;;;;;;;2.25;1.80;;;;;19.20;94509.00;;;;7398337;19;20129;-80
2022/07/04 06:30:16;;;;;;;3.75;1.67;;;;;19.20;94517.00;;;;7393987;19;20579;-79
2022/07/04 06:32:54;;;;;;;2.70;1.58;;;;;19.30;94523.00;;;;7397045;19;20161;-80
2022/07/04 06:38:25;;;;;;;5.85;1.80;;;;;19.30;94523.00;;;;7393968;19;20151;-78
2022/07/04 06:40:58;;;;;;;2.97;1.85;;;;;19.40;94527.00;;;;7392592;19;20148;-79
2022/07/04 06:43:32;;;;;;;3.40;1.65;;;;;19.40;94520.00;;;;7393656;19;20145;-80
2022/07/04 06:46:00;;;;;;;2.05;1.70;;;;;19.40;94524.00;;;;7395786;19;20145;-79
2022/07/04 06:48:27;;;;;;;6.15;1.65;;;;;19.40;94527.00;;;;7392757;19;20153;-79
2022/07/04 06:51:02;;;;;;;5.55;1.80;;;;;19.60;94528.00;;;;7398727;19;20139;-79
2022/07/04 06:53:30;;;;;;;2.15;1.80;;;;;19.90;94524.00;;;;7396894;19;20136;-78
2022/07/04 06:55:57;;;;;;;3.03;1.60;;;;;20.00;94535.00;;;;7401367;19;20137;-79
2022/07/04 06:58:32;;;;;;;3.63;1.60;;;;;20.10;94525.00;;;;7396260;19;20593;-78
2022/07/04 07:01:00;;;;;;;3.72;1.90;;;;;20.30;94531.00;;;;7396976;19;20125;-78
2022/07/04 07:03:28;;;;;;;3.08;1.85;;;;;20.20;94526.00;;;;7396132;19;20153;-78
2022/07/04 07:06:03;;;;;;;7.38;2.22;;;;;20.10;94528.00;;;;7395812;19;20163;-78
2022/07/04 07:08:31;;;;;;;2.10;1.90;;;;;20.10;94522.00;;;;7398075;19;20639;-78
2022/07/04 07:11:17;;;;;;;4.47;2.00;;;;;19.90;94532.00;;;;7397316;19;20643;-79
2022/07/04 07:13:58;;;;;;;5.05;1.88;;;;;19.80;94526.00;;;;7395189;19;20165;-79
2022/07/04 07:16:28;;;;;;;2.40;1.63;;;;;19.70;94520.00;;;;7394355;19;20136;-78
2022/07/04 07:19:02;;;;;;;1.98;1.63;;;;;19.70;94526.00;;;;7395614;19;20148;-79
2022/07/04 07:21:30;;;;;;;4.00;1.60;;;;;19.70;94519.00;;;;7394264;19;20156;-78
2022/07/04 07:24:00;;;;;;;5.32;2.05;;;;;19.70;94521.00;;;;7392622;19;20653;-78
2022/07/04 07:26:34;;;;;;;2.80;1.90;;;;;19.70;94517.00;;;;7392860;19;20167;-78
2022/07/04 07:29:02;;;;;;;2.95;1.63;;;;;19.60;94529.00;;;;7395658;19;20148;-79
2022/07/04 07:31:30;;;;;;;2.80;1.67;;;;;19.70;94523.00;;;;7392785;19;20145;-78
2022/07/04 07:34:05;;;;;;;3.97;1.77;;;;;19.70;94523.00;;;;7395775;19;20153;-79
2022/07/04 07:36:33;;;;;;;3.15;1.50;;;;;19.60;94517.00;;;;7392093;19;20147;-78
2022/07/04 07:39:01;;;;;;;3.42;1.58;;;;;19.80;94513.00;;;;7397433;19;20640;-79
2022/07/04 07:41:35;;;;;;;2.88;1.65;;;;;19.70;94511.00;;;;7393292;19;20124;-78
2022/07/04 07:44:03;;;;;;;3.75;1.42;;;;;19.80;94517.00;;;;7393445;19;20141;-78
2022/07/04 07:46:32;;;;;;;3.67;1.90;;;;;19.90;94524.00;;;;7396320;19;20193;-78
2022/07/04 07:49:06;;;;;;;7.88;2.13;;;;;19.80;94517.00;;;;7393278;19;20124;-79
2022/07/04 07:51:34;;;;;;;4.07;1.80;;;;;19.80;94523.00;;;;7390673;19;20172;-77
2022/07/04 07:54:02;;;;;;;4.45;2.05;;;;;20.00;94517.00;;;;7393155;19;20183;-79
2022/07/04 07:56:48;;;;;;;2.15;1.45;;;;;20.00;94519.00;;;;7390683;19;20148;-79
2022/07/04 07:59:16;;;;;;;3.55;1.70;;;;;20.20;94518.00;;;;7395560;19;20155;-79
2022/07/04 08:01:50;;;;;;;2.22;1.60;;;;;20.40;94518.00;;;;7391093;19;20499;-79
2022/07/04 08:04:37;;;;;;;5.93;1.90;;;;;20.50;94506.00;;;;7392578;19;20152;-79
2022/07/04 08:07:12;;;;;;;2.58;1.50;;;;;20.50;94519.00;;;;7389957;19;20596;-78
2022/07/04 08:09:49;;;;;;;4.45;1.90;;;;;20.40;94518.00;;;;7391472;19;20129;-78
2022/07/04 08:12:30;;;;;;;2.30;1.60;;;;;20.10;94512.00;;;;7393352;19;20172;-79
2022/07/04 08:14:57;;;;;;;7.18;1.90;;;;;20.10;94514.00;;;;7390547;19;20165;-79
2022/07/04 08:17:35;;;;;;;3.25;1.92;;;;;20.30;94517.00;;;;7394844;19;20133;-78
2022/07/04 08:20:04;;;;;;;2.67;1.58;;;;;20.50;94515.00;;;;7392963;19;20141;-78
2022/07/04 08:22:38;;;;;;;6.05;2.03;;;;;20.70;94517.00;;;;7392503;19;20132;-80
2022/07/04 08:25:06;;;;;;;3.90;1.80;;;;;20.80;94511.00;;;;7389722;19;20627;-77
2022/07/04 08:27:34;;;;;;;6.55;1.80;;;;;20.80;94508.00;;;;7396292;19;20231;-78
2022/07/04 08:30:08;;;;;;;3.97;2.05;;;;;20.70;94504.00;;;;7391689;19;20591;-79
2022/07/04 08:32:36;;;;;;;2.17;1.52;;;;;20.70;94494.00;;;;7391727;19;20156;-78
2022/07/04 08:35:05;;;;;;;4.38;2.25;;;;;20.60;94492.00;;;;7390389;19;20133;-78
2022/07/04 08:37:42;;;;;;;6.10;2.22;;;;;21.30;94486.00;;;;7393307;19;20163;-78
2022/07/04 08:40:10;;;;;;;5.25;2.10;;;;;21.90;94491.00;;;;7389146;19;20141;-78
2022/07/04 08:42:39;;;;;;;4.05;2.00;;;;;22.10;94486.00;;;;7394623;19;20615;-77
2022/07/04 08:45:28;;;;;;;4.40;1.90;;;;;22.10;94484.00;;;;7393849;19;20597;-77
2022/07/04 08:48:02;;;;;;;3.92;1.80;;;;;22.60;94480.00;;;;7390165;19;20148;-78
2022/07/04 08:50:47;;;;;;;5.20;2.00;;;;;22.70;94470.00;;;;7390549;19;20557;-77
2022/07/04 08:53:20;;;;;;;4.32;1.80;;;;;22.70;94480.00;;;;7391388;19;20132;-77
2022/07/04 08:58:47;;;;;;;4.32;1.70;;;;;22.50;94472.00;;;;7390194;19;20133;-79
2022/07/04 09:01:22;;;;;;;3.55;1.58;;;;;22.40;94471.00;;;;7391923;19;20152;-80
2022/07/04 09:03:55;;;;;;;6.03;1.75;;;;;22.40;94477.00;;;;7389457;19;20155;-79
2022/07/04 09:06:26;;;;;;;5.82;1.42;;;;;22.70;94476.00;;;;7389973;19;20153;-79
2022/07/04 09:09:01;;;;;;;6.57;1.40;;;;;23.00;94482.00;;;;7390536;19;20149;-81
2022/07/04 09:11:43;;;;;;;4.03;1.50;;;;;23.30;94487.00;;;;7387191;19;20713;-78
2022/07/04 09:14:17;;;;;;;10.73;1.63;;;;;23.50;94485.00;;;;7390585;19;20152;-77
2022/07/04 09:16:48;;;;;;;2.25;1.48;;;;;23.30;94483.00;;;;7390349;19;20628;-77
2022/07/04 09:19:21;;;;;;;4.47;1.50;;;;;23.50;94488.00;;;;7393393;19;20140;-79
2022/07/04 09:21:55;;;;;;;4.43;1.52;;;;;23.30;94486.00;;;;7389134;19;20212;-78
2022/07/04 09:24:48;;;;;;;4.20;1.77;;;;;23.60;94494.00;;;;7388586;19;20137;-79
2022/07/04 09:27:33;;;;;;;2.67;1.48;;;;;24.00;94494.00;;;;7393598;19;20136;-78
2022/07/04 09:30:02;;;;;;;2.92;1.55;;;;;23.50;94508.00;;;;7393199;19;20148;-78
2022/07/04 09:32:42;;;;;;;2.95;1.60;;;;;23.40;94507.00;;;;7391117;19;20140;-78
2022/07/04 09:35:12;;;;;;;3.00;2.00;;;;;22.70;94512.00;;;;7393037;19;20148;-78
2022/07/04 09:37:49;;;;;;;4.05;1.30;;;;;22.60;94502.00;;;;7389867;19;20144;-76
2022/07/04 09:40:26;;;;;;;3.03;1.70;;;;;22.70;94507.00;;;;7391486;19;20216;-78
2022/07/04 09:43:10;;;;;;;4.22;1.60;;;;;22.60;94508.00;;;;7394182;19;20603;-79
2022/07/04 09:45:54;;;;;;;4.53;1.45;;;;;23.20;94516.00;;;;7395908;19;20662;-76
2022/07/04 09:48:48;;;;;;;2.67;1.67;;;;;23.70;94514.00;;;;7395164;19;20480;-78
2022/07/04 09:51:38;;;;;;;3.65;1.50;;;;;24.00;94516.00;;;;7400990;19;20145;-78
2022/07/04 09:54:18;;;;;;;3.80;1.42;;;;;23.70;94526.00;;;;7395491;19;20492;-77
2022/07/04 09:56:51;;;;;;;4.50;2.00;;;;;23.80;94514.00;;;;7396345;19;20666;-79
2022/07/04 09:59:27;;;;;;;2.05;1.60;;;;;24.30;94513.00;;;;7395849;19;20124;-78
2022/07/04 10:02:08;;;;;;;3.63;1.40;;;;;24.40;94512.00;;;;7395408;19;20141;-77
2022/07/04 10:04:55;;;;;;;2.92;1.60;;;;;25.00;94533.00;;;;7393510;19;20129;-77
2022/07/04 10:07:47;;;;;;;1.92;1.70;;;;;24.70;94513.00;;;;7395755;19;20536;-77
2022/07/04 10:10:26;;;;;;;3.25;1.67;;;;;24.70;94532.00;;;;7393346;19;20160;-78
2022/07/04 10:13:05;;;;;;;4.75;1.63;;;;;24.00;94516.00;;;;7397504;19;20161;-77
2022/07/04 10:15:41;;;;;;;2.05;1.52;;;;;24.50;94526.00;;;;7396789;19;20653;-78
2022/07/04 10:18:09;;;;;;;1.92;1.70;;;;;24.20;94532.00;;;;7399421;19;20129;-77
2022/07/04 10:20:37;;;;;;;5.75;1.65;;;;;23.80;94532.00;;;;7394852;19;20141;-79
2022/07/04 10:23:14;;;;;;;2.00;1.40;;;;;23.60;94528.00;;;;7397206;19;20145;-77
2022/07/04 10:25:53;;;;;;;1.73;1.50;;;;;24.40;94528.00;;;;7396096;19;20141;-78
2022/07/04 10:28:29;;;;;;;3.28;1.77;;;;;24.30;94533.00;;;;7396469;19;20606;-81
2022/07/04 10:30:58;;;;;;;2.65;1.55;;;;;24.10;94500.00;;;;7395167;19;20639;-78
2022/07/04 10:33:34;;;;;;;4.95;1.50;;;;;24.70;94531.00;;;;7397627;19;20162;-77
2022/07/04 10:36:17;;;;;;;2.78;1.50;;;;;24.20;94536.00;;;;7395660;19;20533;-77
2022/07/04 10:38:54;;;;;;;2.90;1.90;;;;;23.70;94535.00;;;;7400087;19;20144;-80
2022/07/04 10:41:30;;;;;;;1.95;1.45;;;;;23.80;94541.00;;;;7395381;19;20128;-78
2022/07/04 10:44:02;;;;;;;2.33;1.73;;;;;23.70;94543.00;;;;7395423;19;20491;-79
2022/07/04 10:46:42;;;;;;;3.78;1.60;;;;;23.70;94537.00;;;;7394103;19;20140;-78
2022/07/04 10:49:17;;;;;;;3.05;1.40;;;;;24.20;94530.00;;;;7394633;19;20157;-78
2022/07/04 10:51:56;;;;;;;2.60;2.10;;;;;24.70;94525.00;;;;7393208;19;20135;-79
2022/07/04 10:54:35;;;;;;;2.75;1.90;;;;;24.90;94522.00;;;;7394394;19;20149;-79
2022/07/04 10:57:24;;;;;;;4.47;1.63;;;;;25.10;94534.00;;;;7393285;19;20129;-78
2022/07/04 10:59:56;;;;;;;3.78;2.17;;;;;25.00;94506.00;;;;7394122;19;20129;-78
2022/07/04 11:02:32;;;;;;;2.95;1.88;;;;;25.80;94507.00;;;;7392436;19;20666;-78
2022/07/04 11:05:08;;;;;;;1.90;1.50;;;;;25.90;94494.00;;;;7394560;19;20129;-80
2022/07/04 11:07:45;;;;;;;4.13;1.88;;;;;26.30;94500.00;;;;7394283;19;20157;-79
2022/07/04 11:10:20;;;;;;;5.97;1.92;;;;;26.00;94501.00;;;;7395374;19;20599;-79
2022/07/04 11:13:02;;;;;;;2.17;1.48;;;;;25.70;94487.00;;;;7396135;19;20549;-78
2022/07/04 11:15:32;;;;;;;2.75;1.75;;;;;25.70;94500.00;;;;7399528;19;20124;-79
2022/07/04 11:18:12;;;;;;;2.63;1.73;;;;;25.60;94508.00;;;;7399090;19;20169;-78
2022/07/04 11:20:47;;;;;;;3.40;1.65;;;;;25.60;94508.00;;;;7395513;19;20156;-79
2022/07/04 11:23:21;;;;;;;2.65;1.40;;;;;25.30;94495.00;;;;7397640;19;20121;-78
2022/07/04 11:25:50;;;;;;;3.42;1.73;;;;;25.90;94504.00;;;;7394752;19;20162;-79
2022/07/04 11:28:20;;;;;;;4.30;1.80;;;;;25.70;94492.00;;;;7395776;19;20720;-78
2022/07/04 11:31:12;;;;;;;2.83;1.67;;;;;25.40;94488.00;;;;7389687;19;20136;-78
2022/07/04 11:33:42;;;;;;;3.03;1.58;;;;;26.30;94488.00;;;;7393674;19;20141;-77
2022/07/04 11:36:18;;;;;;;3.38;1.77;;;;;26.20;94483.00;;;;7388505;19;20163;-77
2022/07/04 11:38:53;;;;;;;3.67;1.70;;;;;25.90;94489.00;;;;7396314;19;20132;-76
2022/07/04 11:47:22;;;;;;;5.38;1.70;;;;;26.60;94474.00;;;;7392964;19;20163;-77
2022/07/04 11:49:56;;;;;;;4.90;1.70;;;;;27.70;94463.00;;;;7395865;19;20876;-78
2022/07/04 11:52:41;;;;;;;3.88;1.88;;;;;27.90;94468.00;;;;7392774;19;20701;-76
2022/07/04 11:55:29;;;;;;;2.45;1.60;;;;;27.90;94475.00;;;;7393604;19;20186;-76
2022/07/04 11:58:03;;;;;;;6.55;1.75;;;;;27.50;94485.00;;;;7394306;19;20450;-77
2022/07/04 12:00:31;;;;;;;2.22;1.83;;;;;26.70;94491.00;;;;7394982;19;20244;-76
2022/07/04 12:03:01;;;;;;;2.85;1.73;;;;;25.80;94483.00;;;;7390204;19;20602;-75
2022/07/04 12:05:36;;;;;;;2.00;1.60;;;;;24.80;94488.00;;;;7390641;19;20166;-76
2022/07/04 12:08:07;;;;;;;2.20;1.70;;;;;24.60;94473.00;;;;7391920;19;20132;-75
2022/07/04 12:11:10;;;;;;;4.75;1.92;;;;;25.60;94484.00;;;;7389092;19;20907;-79
2022/07/04 12:13:45;;;;;;;3.53;1.60;;;;;25.50;94484.00;;;;7394539;19;20129;-77
2022/07/04 12:16:19;;;;;;;2.38;1.80;;;;;25.10;94478.00;;;;7389693;19;20496;-74
2022/07/04 12:18:47;;;;;;;5.20;1.80;;;;;24.50;94456.00;;;;7394785;19;21032;-78
2022/07/04 12:21:19;;;;;;;3.95;1.85;;;;;24.80;94465.00;;;;7393947;19;20141;-75
2022/07/04 12:23:54;;;;;;;4.75;1.85;;;;;24.60;94472.00;;;;7392425;19;20618;-77
2022/07/04 12:26:47;;;;;;;6.95;1.80;;;;;24.30;94469.00;;;;7394361;19;20135;-77
2022/07/04 12:29:27;;;;;;;3.42;1.83;;;;;24.40;94448.00;;;;7392439;19;20503;-76
2022/07/04 12:31:59;;;;;;;1.98;1.60;;;;;25.10;94445.00;;;;7393408;19;20124;-79
2022/07/04 12:34:36;;;;;;;3.35;1.98;;;;;26.40;94427.00;;;;7393770;19;20124;-78
2022/07/04 12:37:13;;;;;;;3.22;2.03;;;;;27.10;94433.00;;;;7390642;19;20196;-76
2022/07/04 12:39:48;;;;;;;3.17;2.17;;;;;27.10;94443.00;;;;7395474;19;20200;-77
2022/07/04 12:42:19;;;;;;;3.67;2.00;;;;;26.40;94439.00;;;;7389051;19;20133;-75
2022/07/04 12:44:51;;;;;;;6.05;2.22;;;;;26.00;94435.00;;;;7388930;19;20148;-76
2022/07/04 12:47:26;;;;;;;5.78;2.15;;;;;25.50;94442.00;;;;7388109;19;20141;-76
2022/07/04 12:50:11;;;;;;;2.90;2.00;;;;;24.90;94440.00;;;;7392001;19;20128;-75
2022/07/04 12:52:45;;;;;;;4.25;2.00;;;;;24.80;94428.00;;;;7393608;19;20144;-77
2022/07/04 12:55:15;;;;;;;5.05;2.05;;;;;25.90;94415.00;;;;7390896;19;20232;-77
2022/07/04 12:57:43;;;;;;;4.68;2.05;;;;;26.50;94418.00;;;;7394994;19;20155;-77
2022/07/04 13:00:18;;;;;;;2.17;1.98;;;;;26.20;94419.00;;;;7388047;19;20598;-77
2022/07/04 13:03:03;;;;;;;4.07;2.05;;;;;25.60;94423.00;;;;7391866;19;20137;-76
2022/07/04 13:05:39;;;;;;;1.90;1.80;;;;;25.00;94429.00;;;;7386582;19;20749;-77